createdAt,value
2018-08-01T13:09:02.661Z,1019.83
2018-08-01T13:10:02.641Z,1019.87
2018-08-01T13:11:02.623Z,1019.89
2018-08-01T13:12:02.608Z,1019.92
2018-08-01T13:13:02.594Z,1019.89
2018-08-01T13:14:02.582Z,1019.85
2018-08-01T13:15:02.571Z,1019.92
2018-08-01T13:16:02.559Z,1019.93
2018-08-01T13:17:02.548Z,1019.93
2018-08-01T13:18:02.537Z,1019.92
2018-08-01T13:19:02.526Z,1019.90
2018-08-01T13:20:02.518Z,1019.88
2018-08-01T13:21:02.506Z,1019.84
2018-08-01T13:22:02.498Z,1019.89
2018-08-01T13:23:02.489Z,1019.90
2018-08-01T13:24:02.479Z,1019.85
2018-08-01T13:25:02.471Z,1019.85
2018-08-01T13:26:02.463Z,1019.85
2018-08-01T13:27:02.458Z,1019.87
2018-08-01T13:28:02.449Z,1019.85
2018-08-01T13:29:02.437Z,1019.83
2018-08-01T13:30:02.431Z,1019.80
2018-08-01T13:31:02.420Z,1019.78
2018-08-01T13:32:02.427Z,1019.83
2018-08-01T13:33:02.405Z,1019.82
2018-08-01T13:34:02.397Z,1019.84
2018-08-01T13:35:02.389Z,1019.84
2018-08-01T13:36:02.381Z,1019.84
2018-08-01T13:37:02.379Z,1019.85
2018-08-01T13:38:02.367Z,1019.86
2018-08-01T13:39:02.420Z,1019.82
2018-08-01T13:40:02.352Z,1019.82
2018-08-01T13:41:02.351Z,1019.85
2018-08-01T13:42:02.338Z,1019.82
2018-08-01T13:43:02.330Z,1019.80
2018-08-01T13:44:02.416Z,1019.78
2018-08-01T13:45:02.322Z,1019.78
2018-08-01T13:46:02.310Z,1019.80
2018-08-01T13:47:02.301Z,1019.82
2018-08-01T13:48:02.294Z,1019.79
2018-08-01T13:49:02.288Z,1019.84
2018-08-01T13:50:02.289Z,1019.88
2018-08-01T13:51:02.312Z,1019.82
2018-08-01T13:52:02.267Z,1019.83
2018-08-01T13:53:02.258Z,1019.80
2018-08-01T13:54:02.252Z,1019.82
2018-08-01T13:55:02.247Z,1019.83
2018-08-01T13:56:02.239Z,1019.78
2018-08-01T13:57:02.229Z,1019.77
2018-08-01T13:58:02.223Z,1019.75
2018-08-01T13:59:02.215Z,1019.80
2018-08-01T14:00:02.207Z,1019.84
2018-08-01T14:01:02.201Z,1019.79
2018-08-01T14:02:02.197Z,1019.82
2018-08-01T14:03:02.187Z,1019.80
2018-08-01T14:04:02.180Z,1019.79
2018-08-01T14:05:02.171Z,1019.81
2018-08-01T14:06:02.163Z,1019.78
2018-08-01T14:07:02.155Z,1019.76
2018-08-01T14:08:02.148Z,1019.76
2018-08-01T14:09:02.140Z,1019.80
2018-08-01T14:10:02.133Z,1019.82
2018-08-01T14:11:02.125Z,1019.82
2018-08-01T14:12:02.116Z,1019.81
2018-08-01T14:13:02.108Z,1019.86
2018-08-01T14:14:02.100Z,1019.85
2018-08-01T14:15:02.093Z,1019.82
2018-08-01T14:16:02.087Z,1019.82
2018-08-01T14:17:02.141Z,1019.85
2018-08-01T14:18:02.068Z,1019.82
2018-08-01T14:19:02.085Z,1019.82
2018-08-01T14:20:02.052Z,1019.82
2018-08-01T14:21:02.044Z,1019.82
2018-08-01T14:22:02.036Z,1019.81
2018-08-01T14:23:02.028Z,1019.78
2018-08-01T14:24:02.020Z,1019.80
2018-08-01T14:25:02.013Z,1019.79
2018-08-01T14:26:02.007Z,1019.76
2018-08-01T14:27:01.997Z,1019.79
2018-08-01T14:28:01.988Z,1019.77
2018-08-01T14:29:01.980Z,1019.83
2018-08-01T14:30:01.973Z,1019.81
2018-08-01T14:31:01.967Z,1019.79
2018-08-01T14:32:01.958Z,1019.82
2018-08-01T14:33:01.995Z,1019.80
2018-08-01T14:34:01.941Z,1019.81
2018-08-01T14:35:01.934Z,1019.80
2018-08-01T14:36:01.925Z,1019.83
2018-08-01T14:37:01.919Z,1019.80
2018-08-01T14:38:01.914Z,1019.78
2018-08-01T14:39:01.903Z,1019.83
2018-08-01T14:40:01.896Z,1019.80
2018-08-01T14:41:01.891Z,1019.77
2018-08-01T14:42:01.880Z,1019.81
2018-08-01T14:43:01.873Z,1019.81
2018-08-01T14:44:01.867Z,1019.81
2018-08-01T14:45:01.859Z,1019.82
2018-08-01T14:46:01.851Z,1019.86
2018-08-01T14:47:01.843Z,1019.81
2018-08-01T14:48:01.833Z,1019.82
2018-08-01T14:49:01.827Z,1019.78
2018-08-01T14:50:01.821Z,1019.76
2018-08-01T14:51:01.812Z,1019.78
2018-08-01T14:52:01.804Z,1019.74
2018-08-01T14:53:01.796Z,1019.71
2018-08-01T14:54:01.790Z,1019.73
2018-08-01T14:55:01.781Z,1019.72
2018-08-01T14:56:01.776Z,1019.70
2018-08-01T14:57:01.768Z,1019.69
2018-08-01T14:58:01.761Z,1019.68
2018-08-01T14:59:01.751Z,1019.66
2018-08-01T15:00:01.744Z,1019.64
2018-08-01T15:01:01.738Z,1019.65
2018-08-01T15:02:01.731Z,1019.64
2018-08-01T15:03:01.723Z,1019.63
2018-08-01T15:04:01.715Z,1019.64
2018-08-01T15:05:01.708Z,1019.62
2018-08-01T15:06:01.700Z,1019.59
2018-08-01T15:07:01.695Z,1019.59
2018-08-01T15:08:01.684Z,1019.52
2018-08-01T15:09:01.676Z,1019.56
2018-08-01T15:10:01.670Z,1019.56
2018-08-01T15:11:01.660Z,1019.58
2018-08-01T15:12:01.652Z,1019.56
2018-08-01T15:13:01.644Z,1019.55
2018-08-01T15:14:01.637Z,1019.56
2018-08-01T15:15:01.629Z,1019.53
2018-08-01T15:16:01.625Z,1019.51
2018-08-01T15:17:01.612Z,1019.50
2018-08-01T15:18:01.607Z,1019.50
2018-08-01T15:19:01.598Z,1019.47
2018-08-01T15:20:01.590Z,1019.49
2018-08-01T15:21:01.582Z,1019.50
2018-08-01T15:22:01.575Z,1019.50
2018-08-01T15:23:01.564Z,1019.53
2018-08-01T15:24:01.558Z,1019.52
2018-08-01T15:25:01.552Z,1019.56
2018-08-01T15:26:01.934Z,1019.53
2018-08-01T15:27:01.537Z,1019.53
2018-08-01T15:28:01.525Z,1019.53
2018-08-01T15:29:01.518Z,1019.52
2018-08-01T15:30:01.509Z,1019.51
2018-08-01T15:31:01.503Z,1019.43
2018-08-01T15:32:01.492Z,1019.44
2018-08-01T15:33:01.486Z,1019.48
2018-08-01T15:34:01.478Z,1019.46
2018-08-01T15:35:01.471Z,1019.43
2018-08-01T15:36:01.463Z,1019.44
2018-08-01T15:37:01.455Z,1019.42
2018-08-01T15:38:01.446Z,1019.40
2018-08-01T15:39:01.438Z,1019.38
2018-08-01T15:40:01.442Z,1019.36
2018-08-01T15:41:01.432Z,1019.36
2018-08-01T15:42:01.415Z,1019.36
2018-08-01T15:43:01.408Z,1019.38
2018-08-01T15:44:01.413Z,1019.38
2018-08-01T15:45:01.395Z,1019.37
2018-08-01T15:46:01.416Z,1019.36
2018-08-01T15:47:01.375Z,1019.37
2018-08-01T15:48:01.369Z,1019.36
2018-08-01T15:49:01.363Z,1019.37
2018-08-01T15:50:01.352Z,1019.37
2018-08-01T15:51:15.170Z,1019.38
2018-08-01T15:52:15.238Z,1019.32
2018-08-01T15:53:15.154Z,1019.34
2018-08-01T15:54:15.207Z,1019.35
2018-08-01T15:55:15.133Z,1019.36
2018-08-01T15:56:15.126Z,1019.36
2018-08-01T15:57:15.116Z,1019.38
2018-08-01T15:58:15.108Z,1019.40
2018-08-01T15:59:15.381Z,1019.37
2018-08-01T16:00:15.091Z,1019.37
2018-08-01T16:01:15.082Z,1019.38
2018-08-01T16:02:15.074Z,1019.36
2018-08-01T16:03:15.065Z,1019.34
2018-08-01T16:04:15.056Z,1019.34
2018-08-01T16:05:15.046Z,1019.34
2018-08-01T16:06:15.094Z,1019.36
2018-08-01T16:07:15.029Z,1019.38
2018-08-01T16:08:15.021Z,1019.37
2018-08-01T16:09:15.012Z,1019.33
2018-08-01T16:10:15.001Z,1019.29
2018-08-01T16:11:14.993Z,1019.30
2018-08-01T16:12:14.983Z,1019.23
2018-08-01T16:13:14.974Z,1019.23
2018-08-01T16:14:14.966Z,1019.22
2018-08-01T16:15:14.955Z,1019.23
2018-08-01T16:16:14.947Z,1019.23
2018-08-01T16:17:14.954Z,1019.17
2018-08-01T16:18:14.930Z,1019.19
2018-08-01T16:19:14.918Z,1019.14
2018-08-01T16:20:14.908Z,1019.13
2018-08-01T16:21:14.898Z,1019.13
2018-08-01T16:22:14.890Z,1019.13
2018-08-01T16:23:14.882Z,1019.13
2018-08-01T16:24:14.871Z,1019.13
2018-08-01T16:25:14.860Z,1019.15
2018-08-01T16:26:14.852Z,1019.14
2018-08-01T16:27:14.841Z,1019.17
2018-08-01T16:28:14.833Z,1019.16
2018-08-01T16:29:14.821Z,1019.13
2018-08-01T16:30:14.812Z,1019.17
2018-08-01T16:31:14.801Z,1019.16
2018-08-01T16:32:14.869Z,1019.12
2018-08-01T16:33:14.783Z,1019.12
2018-08-01T16:34:14.774Z,1019.16
2018-08-01T16:35:14.761Z,1019.16
2018-08-01T16:36:14.796Z,1019.13
2018-08-01T16:37:14.743Z,1019.15
2018-08-01T16:38:14.732Z,1019.16
2018-08-01T16:39:14.723Z,1019.17
2018-08-01T16:40:14.713Z,1019.15
2018-08-01T16:41:14.702Z,1019.17
2018-08-01T16:42:14.705Z,1019.12
2018-08-01T16:43:14.681Z,1019.14
2018-08-01T16:44:14.670Z,1019.12
2018-08-01T16:45:14.662Z,1019.13
2018-08-01T16:46:14.651Z,1019.15
2018-08-01T16:47:14.639Z,1019.11
2018-08-01T16:48:14.629Z,1019.18
2018-08-01T16:49:14.619Z,1019.18
2018-08-01T16:50:14.609Z,1019.19
2018-08-01T16:51:14.599Z,1019.17
2018-08-01T16:52:14.587Z,1019.18
2018-08-01T16:53:14.578Z,1019.16
2018-08-01T16:54:14.565Z,1019.17
2018-08-01T16:55:14.555Z,1019.24
2018-08-01T16:56:14.544Z,1019.19
2018-08-01T16:57:14.533Z,1019.23
2018-08-01T16:58:14.522Z,1019.17
2018-08-01T16:59:14.512Z,1019.24
2018-08-01T17:00:14.501Z,1019.26
2018-08-01T17:01:14.490Z,1019.25
2018-08-01T17:02:14.480Z,1019.22
2018-08-01T17:03:14.488Z,1019.24
2018-08-01T17:04:14.457Z,1019.21
2018-08-01T17:05:14.447Z,1019.19
2018-08-01T17:06:14.442Z,1019.23
2018-08-01T17:07:14.423Z,1019.24
2018-08-01T17:08:14.417Z,1019.25
2018-08-01T17:09:14.402Z,1019.27
2018-08-01T17:10:14.416Z,1019.29
2018-08-01T17:11:14.380Z,1019.32
2018-08-01T17:12:14.370Z,1019.31
2018-08-01T17:13:14.357Z,1019.29
2018-08-01T17:14:14.348Z,1019.31
2018-08-01T17:15:14.339Z,1019.32
2018-08-01T17:16:14.329Z,1019.29
2018-08-01T17:17:14.313Z,1019.32
2018-08-01T17:18:14.303Z,1019.30
2018-08-01T17:19:14.291Z,1019.31
2018-08-01T17:20:14.284Z,1019.28
2018-08-01T17:21:14.270Z,1019.28
2018-08-01T17:22:14.258Z,1019.29
2018-08-01T17:23:14.245Z,1019.28
2018-08-01T17:24:14.234Z,1019.29
2018-08-01T17:25:14.224Z,1019.27
2018-08-01T17:26:14.222Z,1019.28
2018-08-01T17:27:14.201Z,1019.25
2018-08-01T17:28:14.209Z,1019.26
2018-08-01T17:29:14.178Z,1019.29
2018-08-01T17:30:14.167Z,1019.30
2018-08-01T17:31:14.154Z,1019.30
2018-08-01T17:32:14.145Z,1019.31
2018-08-01T17:33:14.133Z,1019.31
2018-08-01T17:34:14.121Z,1019.32
2018-08-01T17:35:14.109Z,1019.28
2018-08-01T17:36:14.098Z,1019.31
2018-08-01T17:37:14.088Z,1019.30
2018-08-01T17:38:14.076Z,1019.33
2018-08-01T17:39:14.065Z,1019.30
2018-08-01T17:40:14.053Z,1019.26
2018-08-01T17:41:14.041Z,1019.31
2018-08-01T17:42:14.031Z,1019.33
2018-08-01T17:43:14.018Z,1019.32
2018-08-01T17:44:14.008Z,1019.30
2018-08-01T17:45:13.997Z,1019.33
2018-08-01T17:46:14.005Z,1019.34
2018-08-01T17:47:13.972Z,1019.35
2018-08-01T17:48:13.961Z,1019.36
2018-08-01T17:49:13.965Z,1019.36
2018-08-01T17:50:13.939Z,1019.41
2018-08-01T17:51:13.926Z,1019.42
2018-08-01T17:52:13.915Z,1019.39
2018-08-01T17:53:13.904Z,1019.44
2018-08-01T17:54:13.908Z,1019.46
2018-08-01T17:55:13.881Z,1019.47
2018-08-01T17:56:13.869Z,1019.50
2018-08-01T17:57:13.856Z,1019.52
2018-08-01T17:58:13.847Z,1019.57
2018-08-01T17:59:13.833Z,1019.55
2018-08-01T18:00:13.822Z,1019.57
2018-08-01T18:01:13.812Z,1019.55
2018-08-01T18:02:13.801Z,1019.52
2018-08-01T18:03:13.788Z,1019.50
2018-08-01T18:04:13.775Z,1019.51
2018-08-01T18:05:13.765Z,1019.55
2018-08-01T18:06:13.752Z,1019.55
2018-08-01T18:07:13.741Z,1019.58
2018-08-01T18:08:13.780Z,1019.58
2018-08-01T18:09:13.716Z,1019.58
2018-08-01T18:10:13.704Z,1019.61
2018-08-01T18:11:13.693Z,1019.63
2018-08-01T18:12:13.683Z,1019.65
2018-08-01T18:13:13.670Z,1019.66
2018-08-01T18:14:13.657Z,1019.65
2018-08-01T18:15:13.645Z,1019.68
2018-08-01T18:16:13.634Z,1019.65
2018-08-01T18:17:13.622Z,1019.69
2018-08-01T18:18:13.609Z,1019.70
2018-08-01T18:19:13.609Z,1019.72
2018-08-01T18:20:13.584Z,1019.70
2018-08-01T18:21:13.572Z,1019.72
2018-08-01T18:22:13.561Z,1019.77
2018-08-01T18:23:13.549Z,1019.78
2018-08-01T18:24:13.537Z,1019.84
2018-08-01T18:25:13.527Z,1019.90
2018-08-01T18:26:13.512Z,1019.88
2018-08-01T18:27:13.499Z,1019.86
2018-08-01T18:28:13.485Z,1019.88
2018-08-01T18:29:13.507Z,1019.87
2018-08-01T18:30:13.536Z,1019.88
2018-08-01T18:31:13.453Z,1019.86
2018-08-01T18:32:13.439Z,1019.87
2018-08-01T18:33:13.425Z,1019.93
2018-08-01T18:34:13.413Z,1019.95
2018-08-01T18:35:13.401Z,1019.96
2018-08-01T18:36:13.484Z,1019.98
2018-08-01T18:37:13.377Z,1020.00
2018-08-01T18:38:13.364Z,1019.99
2018-08-01T18:39:13.351Z,1019.99
2018-08-01T18:40:13.337Z,1020.00
2018-08-01T18:41:13.326Z,1019.95
2018-08-01T18:42:13.313Z,1019.94
2018-08-01T18:43:13.299Z,1019.97
2018-08-01T18:44:13.288Z,1019.96
2018-08-01T18:45:13.278Z,1019.96
2018-08-01T18:46:13.262Z,1019.97
2018-08-01T18:47:13.248Z,1019.95
2018-08-01T18:48:13.237Z,1019.96
2018-08-01T18:49:13.227Z,1019.96
2018-08-01T18:50:13.212Z,1019.95
2018-08-01T18:51:13.199Z,1019.99
2018-08-01T18:52:13.186Z,1020.01
2018-08-01T18:53:13.174Z,1020.01
2018-08-01T18:54:13.206Z,1020.03
2018-08-01T18:55:13.147Z,1020.05
2018-08-01T18:56:13.135Z,1020.07
2018-08-01T18:57:13.121Z,1020.11
2018-08-01T18:58:13.109Z,1020.12
2018-08-01T18:59:13.094Z,1020.16
2018-08-01T19:00:13.081Z,1020.17
2018-08-01T19:01:13.069Z,1020.19
2018-08-01T19:02:13.055Z,1020.14
2018-08-01T19:03:13.131Z,1020.21
2018-08-01T19:04:13.030Z,1020.18
2018-08-01T19:05:13.017Z,1020.16
2018-08-01T19:06:13.003Z,1020.15
2018-08-01T19:07:12.990Z,1020.21
2018-08-01T19:08:12.976Z,1020.21
2018-08-01T19:09:12.965Z,1020.24
2018-08-01T19:10:13.020Z,1020.24
2018-08-01T19:11:12.935Z,1020.21
2018-08-01T19:12:12.923Z,1020.29
2018-08-01T19:13:12.909Z,1020.27
2018-08-01T19:14:12.897Z,1020.25
2018-08-01T19:15:12.882Z,1020.26
2018-08-01T19:16:12.870Z,1020.27
2018-08-01T19:17:12.856Z,1020.32
2018-08-01T19:18:12.844Z,1020.30
2018-08-01T19:19:12.829Z,1020.34
2018-08-01T19:20:12.816Z,1020.33
2018-08-01T19:21:12.802Z,1020.40
2018-08-01T19:22:12.789Z,1020.39
2018-08-01T19:23:12.774Z,1020.41
2018-08-01T19:24:12.761Z,1020.44
2018-08-01T19:25:12.747Z,1020.41
2018-08-01T19:26:12.768Z,1020.42
2018-08-01T19:27:12.720Z,1020.42
2018-08-01T19:28:12.705Z,1020.42
2018-08-01T19:29:12.692Z,1020.40
2018-08-01T19:30:12.683Z,1020.40
2018-08-01T19:31:12.666Z,1020.37
2018-08-01T19:32:12.655Z,1020.40
2018-08-01T19:33:12.638Z,1020.38
2018-08-01T19:34:12.624Z,1020.44
2018-08-01T19:35:12.611Z,1020.42
2018-08-01T19:36:12.596Z,1020.44
2018-08-01T19:37:12.582Z,1020.45
2018-08-01T19:38:12.569Z,1020.49
2018-08-01T19:39:12.552Z,1020.49
2018-08-01T19:40:12.539Z,1020.52
2018-08-01T19:41:12.561Z,1020.54
2018-08-01T19:42:12.515Z,1020.55
2018-08-01T19:43:12.496Z,1020.58
2018-08-01T19:44:12.483Z,1020.59
2018-08-01T19:45:12.469Z,1020.68
2018-08-01T19:46:12.456Z,1020.69
2018-08-01T19:47:12.448Z,1020.71
2018-08-01T19:48:12.431Z,1020.74
2018-08-01T19:49:12.412Z,1020.75
2018-08-01T19:50:12.423Z,1020.73
2018-08-01T19:51:12.894Z,1020.76
2018-08-01T19:52:12.828Z,1020.74
2018-08-01T19:53:12.788Z,1020.75
2018-08-01T19:54:12.985Z,1020.76
2018-08-01T19:55:13.008Z,1020.74
2018-08-01T19:56:12.868Z,1020.74
2018-08-01T19:57:12.842Z,1020.75
2018-08-01T19:58:12.429Z,1020.75
2018-08-01T19:59:12.273Z,1020.78
2018-08-01T20:00:12.596Z,1020.78
2018-08-01T20:01:12.241Z,1020.78
2018-08-01T20:02:12.229Z,1020.79
2018-08-01T20:03:12.211Z,1020.79
2018-08-01T20:04:12.200Z,1020.77
2018-08-01T20:05:12.185Z,1020.78
2018-08-01T20:06:12.168Z,1020.77
2018-08-01T20:07:12.222Z,1020.77
2018-08-01T20:08:12.140Z,1020.78
2018-08-01T20:09:12.125Z,1020.78
2018-08-01T20:10:12.110Z,1020.80
2018-08-01T20:11:12.094Z,1020.83
2018-08-01T20:12:12.081Z,1020.79
2018-08-01T20:13:12.067Z,1020.79
2018-08-01T20:14:12.053Z,1020.81
2018-08-01T20:15:12.036Z,1020.78
2018-08-01T20:16:12.023Z,1020.81
2018-08-01T20:17:12.009Z,1020.76
2018-08-01T20:18:11.995Z,1020.78
2018-08-01T20:19:11.978Z,1020.76
2018-08-01T20:20:11.965Z,1020.78
2018-08-01T20:21:11.949Z,1020.86
2018-08-01T20:22:11.936Z,1020.88
2018-08-01T20:23:11.920Z,1020.87
2018-08-01T20:24:11.907Z,1020.87
2018-08-01T20:25:11.894Z,1020.91
2018-08-01T20:26:11.878Z,1020.86
2018-08-01T20:27:11.862Z,1020.88
2018-08-01T20:28:11.852Z,1020.84
2018-08-01T20:29:11.834Z,1020.88
2018-08-01T20:30:11.820Z,1020.85
2018-08-01T20:31:11.803Z,1020.83
2018-08-01T20:32:11.790Z,1020.84
2018-08-01T20:33:11.776Z,1020.86
2018-08-01T20:34:11.761Z,1020.82
2018-08-01T20:35:11.745Z,1020.86
2018-08-01T20:36:11.732Z,1020.84
2018-08-01T20:37:11.717Z,1020.86
2018-08-01T20:38:11.701Z,1020.85
2018-08-01T20:39:11.685Z,1020.88
2018-08-01T20:40:11.672Z,1020.83
2018-08-01T20:41:11.739Z,1020.86
2018-08-01T20:42:11.643Z,1020.88
2018-08-01T20:43:11.629Z,1020.88
2018-08-01T20:44:11.612Z,1020.89
2018-08-01T20:45:11.598Z,1020.94
2018-08-01T20:46:11.585Z,1020.93
2018-08-01T20:47:11.568Z,1020.95
2018-08-01T20:48:11.553Z,1020.96
2018-08-01T20:49:11.539Z,1020.98
2018-08-01T20:50:11.525Z,1020.98
2018-08-01T20:51:11.508Z,1021.02
2018-08-01T20:52:11.496Z,1021.04
2018-08-01T20:53:11.632Z,1021.03
2018-08-01T20:54:11.466Z,1021.06
2018-08-01T20:55:11.448Z,1021.09
2018-08-01T20:56:11.434Z,1021.05
2018-08-01T20:57:11.421Z,1021.14
2018-08-01T20:58:11.406Z,1021.11
2018-08-01T20:59:11.389Z,1021.15
2018-08-01T21:00:11.375Z,1021.13
2018-08-01T21:01:11.360Z,1021.16
2018-08-01T21:02:11.346Z,1021.18
2018-08-01T21:03:11.334Z,1021.16
2018-08-01T21:04:11.316Z,1021.19
2018-08-01T21:05:11.300Z,1021.15
2018-08-01T21:06:11.334Z,1021.15
2018-08-01T21:07:11.270Z,1021.15
2018-08-01T21:08:11.256Z,1021.16
2018-08-01T21:09:11.242Z,1021.18
2018-08-01T21:10:11.227Z,1021.17
2018-08-01T21:11:11.213Z,1021.14
2018-08-01T21:12:11.243Z,1021.17
2018-08-01T21:13:11.186Z,1021.12
2018-08-01T21:14:11.166Z,1021.16
2018-08-01T21:15:11.152Z,1021.13
2018-08-01T21:16:11.137Z,1021.13
2018-08-01T21:17:11.120Z,1021.16
2018-08-01T21:18:11.161Z,1021.14
2018-08-01T21:19:11.095Z,1021.16
2018-08-01T21:20:11.078Z,1021.17
2018-08-01T21:21:11.060Z,1021.14
2018-08-01T21:22:11.047Z,1021.17
2018-08-01T21:23:11.030Z,1021.14
2018-08-01T21:24:11.015Z,1021.13
2018-08-01T21:25:11.091Z,1021.14
2018-08-01T21:26:10.985Z,1021.17
2018-08-01T21:27:10.970Z,1021.15
2018-08-01T21:28:10.954Z,1021.15
2018-08-01T21:29:10.941Z,1021.16
2018-08-01T21:30:10.924Z,1021.19
2018-08-01T21:31:10.909Z,1021.17
2018-08-01T21:32:10.894Z,1021.21
2018-08-01T21:33:10.880Z,1021.24
2018-08-01T21:34:10.866Z,1021.27
2018-08-01T21:35:10.896Z,1021.26
2018-08-01T21:36:10.834Z,1021.29
2018-08-01T21:37:10.819Z,1021.30
2018-08-01T21:38:10.804Z,1021.29
2018-08-01T21:39:10.789Z,1021.29
2018-08-01T21:40:10.774Z,1021.29
2018-08-01T21:41:10.759Z,1021.33
2018-08-01T21:42:10.758Z,1021.34
2018-08-01T21:43:10.729Z,1021.36
2018-08-01T21:44:10.712Z,1021.33
2018-08-01T21:45:10.698Z,1021.34
2018-08-01T21:46:10.683Z,1021.36
2018-08-01T21:47:10.671Z,1021.36
2018-08-01T21:48:10.652Z,1021.39
2018-08-01T21:49:10.638Z,1021.39
2018-08-01T21:50:10.623Z,1021.37
2018-08-01T21:51:10.606Z,1021.38
2018-08-01T21:52:10.594Z,1021.37
2018-08-01T21:53:10.577Z,1021.36
2018-08-01T21:54:10.562Z,1021.35
2018-08-01T21:55:10.549Z,1021.34
2018-08-01T21:56:10.531Z,1021.33
2018-08-01T21:57:10.516Z,1021.31
2018-08-01T21:58:10.500Z,1021.29
2018-08-01T21:59:10.487Z,1021.31
2018-08-01T22:00:10.470Z,1021.32
2018-08-01T22:01:10.456Z,1021.32
2018-08-01T22:02:10.443Z,1021.28
2018-08-01T22:03:10.424Z,1021.29
2018-08-01T22:04:10.409Z,1021.24
2018-08-01T22:05:10.396Z,1021.23
2018-08-01T22:06:10.379Z,1021.18
2018-08-01T22:07:10.379Z,1021.19
2018-08-01T22:08:10.350Z,1021.13
2018-08-01T22:09:10.333Z,1021.14
2018-08-01T22:10:10.317Z,1021.11
2018-08-01T22:11:10.301Z,1021.12
2018-08-01T22:12:10.289Z,1021.08
2018-08-01T22:13:10.270Z,1021.10
2018-08-01T22:14:10.256Z,1021.08
2018-08-01T22:15:10.240Z,1021.09
2018-08-01T22:16:10.224Z,1021.09
2018-08-01T22:17:10.209Z,1021.11
2018-08-01T22:18:10.195Z,1021.13
2018-08-01T22:19:10.182Z,1021.16
2018-08-01T22:20:10.163Z,1021.19
2018-08-01T22:21:10.148Z,1021.19
2018-08-01T22:22:10.132Z,1021.20
2018-08-01T22:23:10.117Z,1021.20
2018-08-01T22:24:10.100Z,1021.17
2018-08-01T22:25:10.085Z,1021.17
2018-08-01T22:26:10.070Z,1021.12
2018-08-01T22:27:10.059Z,1021.09
2018-08-01T22:28:10.038Z,1021.10
2018-08-01T22:29:10.023Z,1021.11
2018-08-01T22:30:10.009Z,1021.12
2018-08-01T22:31:09.992Z,1021.12
2018-08-01T22:32:09.977Z,1021.09
2018-08-01T22:33:09.961Z,1021.07
2018-08-01T22:34:09.946Z,1021.06
2018-08-01T22:35:09.928Z,1021.04
2018-08-01T22:36:09.916Z,1021.04
2018-08-01T22:37:09.898Z,1021.04
2018-08-01T22:38:09.882Z,1021.04
2018-08-01T22:39:09.867Z,1021.02
2018-08-01T22:40:09.852Z,1021.03
2018-08-01T22:41:09.836Z,1020.99
2018-08-01T22:42:09.821Z,1021.00
2018-08-01T22:43:09.804Z,1020.96
2018-08-01T22:44:09.790Z,1020.97
2018-08-01T22:45:09.777Z,1020.97
2018-08-01T22:46:09.757Z,1020.93
2018-08-01T22:47:09.742Z,1020.90
2018-08-01T22:48:09.727Z,1020.87
2018-08-01T22:49:09.713Z,1020.88
2018-08-01T22:50:09.694Z,1020.88
2018-08-01T22:51:09.679Z,1020.84
2018-08-01T22:52:09.662Z,1020.84
2018-08-01T22:53:09.649Z,1020.83
2018-08-01T22:54:09.713Z,1020.80
2018-08-01T22:55:09.616Z,1020.82
2018-08-01T22:56:09.600Z,1020.80
2018-08-01T22:57:09.589Z,1020.80
2018-08-01T22:58:09.572Z,1020.78
2018-08-01T22:59:09.554Z,1020.77
2018-08-01T23:00:09.537Z,1020.75
2018-08-01T23:01:09.522Z,1020.76
2018-08-01T23:02:09.506Z,1020.77
2018-08-01T23:03:09.488Z,1020.78
2018-08-01T23:04:09.474Z,1020.75
2018-08-01T23:05:09.462Z,1020.72
2018-08-01T23:06:09.443Z,1020.73
2018-08-01T23:07:09.426Z,1020.65
2018-08-01T23:08:09.410Z,1020.67
2018-08-01T23:09:09.394Z,1020.65
2018-08-01T23:10:09.378Z,1020.67
2018-08-01T23:11:09.362Z,1020.64
2018-08-01T23:12:09.349Z,1020.66
2018-08-01T23:13:09.340Z,1020.72
2018-08-01T23:14:09.313Z,1020.78
2018-08-01T23:15:09.298Z,1020.79
2018-08-01T23:16:09.281Z,1020.79
2018-08-01T23:17:09.267Z,1020.78
2018-08-01T23:18:09.249Z,1020.76
2018-08-01T23:19:09.235Z,1020.76
2018-08-01T23:20:09.217Z,1020.72
2018-08-01T23:21:09.201Z,1020.72
2018-08-01T23:22:09.185Z,1020.70
2018-08-01T23:23:09.170Z,1020.68
2018-08-01T23:24:09.152Z,1020.70
2018-08-01T23:25:09.137Z,1020.69
2018-08-01T23:26:09.123Z,1020.66
2018-08-01T23:27:09.105Z,1020.63
2018-08-01T23:28:09.112Z,1020.62
2018-08-01T23:29:09.079Z,1020.56
2018-08-01T23:30:09.057Z,1020.56
2018-08-01T23:31:09.043Z,1020.55
2018-08-01T23:32:09.024Z,1020.58
2018-08-01T23:33:09.011Z,1020.61
2018-08-01T23:34:08.992Z,1020.63
2018-08-01T23:35:08.975Z,1020.70
2018-08-01T23:36:08.977Z,1020.74
2018-08-01T23:37:08.944Z,1020.75
2018-08-01T23:38:08.928Z,1020.75
2018-08-01T23:39:08.911Z,1020.79
2018-08-01T23:40:08.899Z,1020.81
2018-08-01T23:41:08.879Z,1020.81
2018-08-01T23:42:08.863Z,1020.81
2018-08-01T23:43:08.848Z,1020.84
2018-08-01T23:44:08.831Z,1020.89
2018-08-01T23:45:08.814Z,1020.89
2018-08-01T23:46:08.798Z,1020.90
2018-08-01T23:47:08.781Z,1020.88
2018-08-01T23:48:08.765Z,1020.87
2018-08-01T23:49:08.749Z,1020.87
2018-08-01T23:50:08.732Z,1020.87
2018-08-01T23:51:08.715Z,1020.87
2018-08-01T23:52:08.699Z,1020.88
2018-08-01T23:53:08.681Z,1020.86
2018-08-01T23:54:08.668Z,1020.86
2018-08-01T23:55:08.650Z,1020.86
2018-08-01T23:56:08.633Z,1020.87
2018-08-01T23:57:08.616Z,1020.86
2018-08-01T23:58:08.601Z,1020.83
2018-08-01T23:59:08.583Z,1020.81
